createdAt,value
2023-02-04T00:00:23.139Z,0.38
2023-02-04T00:02:50.851Z,0.70
2023-02-04T00:06:09.542Z,0.57
2023-02-04T00:08:42.012Z,0.40
2023-02-04T00:11:09.860Z,0.50
2023-02-04T00:13:39.873Z,0.50
2023-02-04T00:16:12.682Z,0.73
2023-02-04T00:18:43.300Z,0.30
2023-02-04T00:21:11.912Z,0.60
2023-02-04T00:23:39.288Z,0.40
2023-02-04T00:26:06.500Z,0.40
2023-02-04T00:28:34.144Z,0.40
2023-02-04T00:31:01.682Z,0.20
2023-02-04T00:33:29.136Z,0.68
2023-02-04T00:35:56.911Z,0.35
2023-02-04T00:38:24.593Z,0.15
2023-02-04T00:40:51.848Z,0.50
2023-02-04T00:43:19.282Z,0.32
2023-02-04T00:45:46.957Z,0.50
2023-02-04T00:48:14.614Z,0.13
2023-02-04T00:50:42.314Z,0.40
2023-02-04T00:53:09.973Z,0.45
2023-02-04T00:55:37.273Z,0.38
2023-02-04T00:58:05.587Z,0.43
2023-02-04T01:00:33.359Z,0.45
2023-02-04T01:05:33.418Z,0.25
2023-02-04T01:08:01.029Z,0.25
2023-02-04T01:10:29.257Z,0.70
2023-02-04T01:12:57.931Z,0.25
2023-02-04T01:15:25.243Z,0.47
2023-02-04T01:17:54.358Z,0.70
2023-02-04T01:20:22.041Z,0.40
2023-02-04T01:22:50.607Z,0.57
2023-02-04T01:25:20.854Z,0.60
2023-02-04T01:27:50.476Z,0.60
2023-02-04T01:30:17.796Z,0.45
2023-02-04T01:32:45.506Z,0.28
2023-02-04T01:35:13.991Z,0.30
2023-02-04T01:37:41.274Z,0.65
2023-02-04T01:40:09.548Z,0.60
2023-02-04T01:42:37.339Z,0.40
2023-02-04T01:45:06.409Z,0.40
2023-02-04T01:47:35.200Z,0.35
2023-02-04T01:50:05.934Z,0.32
2023-02-04T01:52:38.403Z,0.60
2023-02-04T01:55:17.320Z,0.73
2023-02-04T01:57:45.939Z,0.95
2023-02-04T02:00:34.027Z,0.40
2023-02-04T02:03:03.586Z,0.32
2023-02-04T02:05:37.447Z,0.40
2023-02-04T02:08:07.064Z,0.50
2023-02-04T02:10:39.041Z,0.50
2023-02-04T02:13:18.808Z,0.43
2023-02-04T02:15:53.357Z,0.57
2023-02-04T02:18:21.263Z,0.40
2023-02-04T02:20:55.100Z,0.75
2023-02-04T02:23:45.145Z,0.60
2023-02-04T02:26:13.529Z,0.32
2023-02-04T02:28:41.591Z,0.40
2023-02-04T02:31:11.455Z,0.50
2023-02-04T02:33:39.212Z,0.40
2023-02-04T02:36:06.902Z,0.40
2023-02-04T02:38:34.180Z,0.30
2023-02-04T02:41:05.548Z,0.60
2023-02-04T02:43:32.996Z,1.10
2023-02-04T02:46:03.360Z,0.50
2023-02-04T02:48:32.712Z,0.57
2023-02-04T02:51:00.472Z,0.38
2023-02-04T02:53:27.999Z,0.40
2023-02-04T02:55:58.074Z,0.70
2023-02-04T02:58:34.972Z,0.50
2023-02-04T03:01:05.014Z,0.57
2023-02-04T03:03:38.899Z,0.50
2023-02-04T03:06:13.406Z,0.50
2023-02-04T03:08:45.943Z,0.50
2023-02-04T03:11:13.713Z,0.40
2023-02-04T03:13:42.418Z,0.47
2023-02-04T03:16:10.182Z,0.50
2023-02-04T03:18:41.311Z,0.50
2023-02-04T03:21:11.675Z,0.30
2023-02-04T03:23:39.103Z,0.55
2023-02-04T03:26:06.882Z,0.43
2023-02-04T03:28:34.858Z,0.40
2023-02-04T03:31:03.039Z,0.73
2023-02-04T03:33:31.607Z,0.80
2023-02-04T03:36:01.574Z,0.43
2023-02-04T03:38:29.188Z,0.60
2023-02-04T03:40:56.688Z,0.10
2023-02-04T03:43:24.248Z,0.40
2023-02-04T03:45:51.685Z,0.28
2023-02-04T03:48:18.845Z,0.35
2023-02-04T03:50:46.210Z,0.35
2023-02-04T03:53:13.748Z,0.50
2023-02-04T03:55:40.687Z,0.32
2023-02-04T03:58:07.888Z,0.30
2023-02-04T04:00:35.381Z,0.47
2023-02-04T04:03:02.924Z,0.30
2023-02-04T04:05:30.705Z,0.47
2023-02-04T04:08:01.822Z,0.40
2023-02-04T04:10:32.517Z,0.50
2023-02-04T04:12:59.962Z,0.80
2023-02-04T04:15:27.529Z,0.47
2023-02-04T04:17:55.142Z,0.60
2023-02-04T04:20:25.598Z,0.57
2023-02-04T04:22:53.176Z,0.22
2023-02-04T04:25:20.902Z,0.40
2023-02-04T04:27:48.466Z,0.50
2023-02-04T04:30:15.713Z,0.30
2023-02-04T04:32:43.098Z,0.95
2023-02-04T04:35:10.168Z,0.40
2023-02-04T04:37:37.677Z,0.40
2023-02-04T04:40:04.910Z,0.40
2023-02-04T04:42:32.408Z,0.50
2023-02-04T04:44:59.919Z,0.35
2023-02-04T04:47:27.621Z,0.43
2023-02-04T04:49:56.998Z,0.43
2023-02-04T04:52:24.546Z,0.50
2023-02-04T04:54:52.122Z,0.17
2023-02-04T04:57:19.592Z,0.22
2023-02-04T04:59:46.801Z,0.43
2023-02-04T05:02:14.435Z,0.32
2023-02-04T05:04:42.194Z,0.43
2023-02-04T05:07:18.488Z,0.40
2023-02-04T05:09:45.701Z,0.20
2023-02-04T05:12:12.783Z,0.20
2023-02-04T05:14:39.914Z,0.20
2023-02-04T05:17:07.395Z,0.30
2023-02-04T05:19:35.806Z,0.20
2023-02-04T05:22:03.328Z,0.22
2023-02-04T05:24:30.357Z,0.13
2023-02-04T05:26:57.308Z,0.30
2023-02-04T05:29:24.430Z,0.25
2023-02-04T05:31:51.438Z,0.30
2023-02-04T05:34:18.392Z,0.40
2023-02-04T05:36:45.859Z,0.38
2023-02-04T05:39:13.267Z,0.20
2023-02-04T05:41:40.660Z,0.22
2023-02-04T05:44:08.138Z,0.30
2023-02-04T05:46:35.365Z,0.35
2023-02-04T05:49:02.893Z,0.40
2023-02-04T05:51:30.381Z,0.30
2023-02-04T05:53:57.702Z,0.30
2023-02-04T05:56:25.603Z,0.25
2023-02-04T05:58:55.775Z,0.47
2023-02-04T06:01:23.325Z,0.38
2023-02-04T06:03:51.300Z,0.38
2023-02-04T06:06:23.597Z,0.50
2023-02-04T06:08:51.749Z,0.40
2023-02-04T06:11:19.980Z,0.40
2023-02-04T06:13:47.693Z,0.63
2023-02-04T06:16:17.772Z,0.90
2023-02-04T06:18:45.855Z,0.70
2023-02-04T06:21:13.743Z,0.40
2023-02-04T06:23:41.197Z,0.40
2023-02-04T06:26:09.003Z,0.77
2023-02-04T06:28:36.458Z,0.73
2023-02-04T06:31:04.511Z,0.43
2023-02-04T06:33:32.152Z,0.50
2023-02-04T06:35:59.681Z,0.77
2023-02-04T06:38:27.449Z,0.40
2023-02-04T06:41:05.268Z,0.60
2023-02-04T06:43:35.104Z,0.40
2023-02-04T06:46:06.002Z,0.60
2023-02-04T06:48:41.017Z,0.40
2023-02-04T06:51:10.584Z,0.60
2023-02-04T06:53:54.813Z,0.55
2023-02-04T06:56:22.677Z,0.65
2023-02-04T06:58:50.053Z,0.57
2023-02-04T07:01:17.250Z,0.65
2023-02-04T07:03:47.176Z,0.52
2023-02-04T07:06:15.008Z,0.60
2023-02-04T07:08:43.961Z,0.68
2023-02-04T07:11:11.531Z,0.70
2023-02-04T07:13:40.510Z,0.77
2023-02-04T07:16:22.353Z,1.02
2023-02-04T07:18:55.658Z,0.65
2023-02-04T07:21:25.543Z,0.68
2023-02-04T07:23:59.342Z,1.00
2023-02-04T07:26:27.150Z,1.00
2023-02-04T07:35:55.998Z,0.50
2023-02-04T07:46:21.492Z,0.70
2023-02-04T07:48:57.068Z,0.80
2023-02-04T07:51:39.513Z,0.70
2023-02-04T07:54:24.641Z,0.77
2023-02-04T07:59:56.404Z,2.50
2023-02-04T08:02:36.917Z,0.82
2023-02-04T08:05:25.965Z,0.95
2023-02-04T08:11:37.025Z,1.10
2023-02-04T08:14:34.601Z,0.88
2023-02-04T08:21:20.900Z,0.80
2023-02-04T08:27:15.347Z,0.85
2023-02-04T08:30:15.750Z,1.13
2023-02-04T08:33:28.586Z,0.70
2023-02-04T08:39:47.649Z,0.88
2023-02-04T08:42:38.891Z,0.80
2023-02-04T08:45:31.715Z,0.52
2023-02-04T08:48:17.714Z,0.70
2023-02-04T08:50:48.821Z,0.90
2023-02-04T08:53:49.738Z,0.60
2023-02-04T08:56:22.781Z,0.60
2023-02-04T09:02:12.456Z,0.70
2023-02-04T09:04:48.542Z,0.55
2023-02-04T09:07:28.296Z,0.60
2023-02-04T09:10:13.146Z,0.50
2023-02-04T09:15:49.254Z,0.77
2023-02-04T09:18:24.321Z,0.80
2023-02-04T09:21:06.175Z,0.70
2023-02-04T09:24:01.306Z,0.40
2023-02-04T09:26:36.718Z,0.40
2023-02-04T09:29:15.315Z,0.32
2023-02-04T09:31:50.506Z,0.30
2023-02-04T09:34:37.380Z,0.40
2023-02-04T09:37:15.717Z,0.22
2023-02-04T09:40:10.536Z,0.60
2023-02-04T09:43:09.902Z,0.40
2023-02-04T09:45:48.473Z,0.32
2023-02-04T09:48:49.696Z,0.30
2023-02-04T09:51:31.773Z,0.50
2023-02-04T09:54:18.169Z,0.30
2023-02-04T09:56:58.324Z,0.35
2023-02-04T10:00:12.251Z,0.35
2023-02-04T10:02:50.677Z,0.40
2023-02-04T10:08:41.803Z,0.50
2023-02-04T10:11:50.683Z,0.50
2023-02-04T10:14:28.105Z,0.40
2023-02-04T10:17:07.650Z,0.60
2023-02-04T10:19:48.824Z,0.35
2023-02-04T10:22:23.758Z,0.73
2023-02-04T10:24:53.823Z,0.40
2023-02-04T10:27:29.733Z,0.32
2023-02-04T10:31:05.835Z,0.50
2023-02-04T10:36:31.419Z,0.60
2023-02-04T10:39:22.746Z,0.40
2023-02-04T10:41:53.378Z,0.70
2023-02-04T10:44:32.595Z,0.50
2023-02-04T10:47:08.822Z,0.50
2023-02-04T10:49:47.984Z,0.50
2023-02-04T10:52:17.732Z,0.40
2023-02-04T10:54:52.326Z,0.40
2023-02-04T10:57:28.493Z,0.32
2023-02-04T10:59:59.465Z,0.60
2023-02-04T11:03:06.071Z,0.47
2023-02-04T11:05:37.177Z,0.50
2023-02-04T11:08:23.556Z,0.50
2023-02-04T11:10:59.330Z,0.50
2023-02-04T11:13:49.282Z,0.38
2023-02-04T11:16:30.460Z,0.40
2023-02-04T11:19:09.256Z,0.60
2023-02-04T11:21:39.485Z,0.43
2023-02-04T11:24:13.836Z,0.50
2023-02-04T11:26:43.286Z,0.70
2023-02-04T11:29:44.253Z,0.40
2023-02-04T11:32:28.143Z,0.50
2023-02-04T11:35:06.041Z,0.50
2023-02-04T11:37:37.870Z,0.57
2023-02-04T11:40:28.894Z,0.55
2023-02-04T11:43:04.201Z,0.50
2023-02-04T11:45:35.153Z,0.40
2023-02-04T11:48:21.745Z,0.40
2023-02-04T11:51:04.133Z,0.35
2023-02-04T11:53:34.104Z,0.50
2023-02-04T11:56:04.729Z,0.30
2023-02-04T11:58:43.226Z,0.40
2023-02-04T12:04:01.468Z,0.28
2023-02-04T12:06:39.624Z,0.50
2023-02-04T12:09:18.963Z,0.20
2023-02-04T12:12:06.686Z,0.50
2023-02-04T12:14:39.120Z,0.50
2023-02-04T12:17:36.314Z,0.50
2023-02-04T12:20:07.180Z,0.60
2023-02-04T12:22:37.609Z,0.40
2023-02-04T12:25:17.103Z,0.32
2023-02-04T12:27:44.482Z,0.30
2023-02-04T12:30:14.259Z,0.22
2023-02-04T12:32:43.654Z,0.20
2023-02-04T12:35:10.606Z,0.30
2023-02-04T12:37:37.581Z,0.30
2023-02-04T12:40:08.066Z,0.40
2023-02-04T12:42:35.335Z,0.20
2023-02-04T12:47:40.975Z,0.30
2023-02-04T12:50:09.504Z,0.30
2023-02-04T12:52:42.395Z,0.43
2023-02-04T12:55:09.519Z,0.22
2023-02-04T12:57:36.593Z,0.30
2023-02-04T13:00:04.291Z,0.28
2023-02-04T13:02:32.668Z,0.50
2023-02-04T13:04:59.653Z,0.35
2023-02-04T13:09:57.562Z,0.20
2023-02-04T13:12:27.766Z,0.45
2023-02-04T13:14:57.704Z,0.60
2023-02-04T13:17:25.545Z,0.30
2023-02-04T13:19:55.538Z,0.45
2023-02-04T13:22:28.963Z,0.47
2023-02-04T13:27:32.027Z,0.30
2023-02-04T13:29:59.309Z,0.50
2023-02-04T13:32:26.290Z,0.30
2023-02-04T13:34:56.026Z,0.50
2023-02-04T13:37:23.149Z,0.40
2023-02-04T13:39:50.637Z,0.40
2023-02-04T13:42:18.089Z,0.30
2023-02-04T13:44:45.825Z,0.40
2023-02-04T13:47:13.374Z,0.50
2023-02-04T13:49:45.013Z,0.60
2023-02-04T13:52:18.364Z,0.50
2023-02-04T13:54:46.394Z,0.60
2023-02-04T13:57:14.086Z,0.38
2023-02-04T13:59:41.182Z,0.47
2023-02-04T14:02:11.413Z,0.40
2023-02-04T14:04:39.118Z,0.45
2023-02-04T14:07:14.097Z,0.50
2023-02-04T14:09:52.394Z,0.70
2023-02-04T14:12:21.427Z,1.15
2023-02-04T14:14:59.403Z,0.88
2023-02-04T14:17:29.692Z,0.28
2023-02-04T14:19:57.093Z,0.68
2023-02-04T14:22:27.514Z,0.50
2023-02-04T14:25:01.875Z,0.57
2023-02-04T14:27:31.402Z,0.68
2023-02-04T14:29:59.708Z,0.70
2023-02-04T14:32:27.271Z,0.40
2023-02-04T14:34:54.816Z,0.35
2023-02-04T14:37:21.790Z,0.52
2023-02-04T14:39:50.559Z,0.50
2023-02-04T14:42:17.965Z,0.57
2023-02-04T14:44:47.714Z,0.43
2023-02-04T14:47:16.873Z,0.70
2023-02-04T14:49:46.952Z,0.40
2023-02-04T14:52:14.600Z,0.70
2023-02-04T14:54:41.706Z,0.57
2023-02-04T14:57:12.844Z,0.60
2023-02-04T14:59:40.732Z,0.30
2023-02-04T15:02:16.669Z,0.50
2023-02-04T15:04:46.676Z,0.60
2023-02-04T15:07:13.794Z,0.50
2023-02-04T15:09:42.483Z,0.35
2023-02-04T15:12:11.446Z,0.60
2023-02-04T15:14:43.550Z,0.82
2023-02-04T15:17:13.051Z,0.35
2023-02-04T15:19:43.402Z,0.50
2023-02-04T15:22:10.766Z,0.50
2023-02-04T15:24:42.837Z,0.25
2023-02-04T15:27:11.170Z,0.40
2023-02-04T15:29:38.522Z,0.60
2023-02-04T15:32:05.610Z,0.60
2023-02-04T15:34:33.247Z,0.60
2023-02-04T15:37:00.581Z,0.70
2023-02-04T15:39:27.746Z,0.60
2023-02-04T15:41:54.838Z,0.50
2023-02-04T15:44:24.324Z,0.70
2023-02-04T15:46:55.141Z,0.82
2023-02-04T15:49:22.393Z,0.63
2023-02-04T15:51:56.051Z,0.60
2023-02-04T15:54:23.156Z,0.22
2023-02-04T15:56:50.912Z,0.60
2023-02-04T15:59:19.205Z,0.60
2023-02-04T16:01:52.437Z,0.70
2023-02-04T16:04:23.068Z,0.50
2023-02-04T16:06:58.417Z,0.60
2023-02-04T16:09:28.698Z,0.65
2023-02-04T16:11:56.767Z,0.50
2023-02-04T16:14:30.207Z,0.32
2023-02-04T16:17:12.679Z,0.55
2023-02-04T16:19:40.144Z,0.70
2023-02-04T16:22:07.621Z,0.70
2023-02-04T16:24:34.949Z,0.50
2023-02-04T16:27:01.948Z,0.68
2023-02-04T16:29:28.969Z,0.75
2023-02-04T16:31:57.681Z,0.82
2023-02-04T16:34:25.382Z,0.93
2023-02-04T16:36:52.616Z,1.50
2023-02-04T16:39:19.656Z,1.90
2023-02-04T16:41:46.816Z,1.95
2023-02-04T16:44:14.903Z,1.50
2023-02-04T16:46:42.518Z,1.38
2023-02-04T16:49:16.454Z,0.80
2023-02-04T16:51:48.349Z,1.05
2023-02-04T16:54:15.845Z,1.08
2023-02-04T16:56:43.771Z,1.10
2023-02-04T16:59:14.532Z,1.40
2023-02-04T17:01:44.733Z,1.23
2023-02-04T17:04:11.991Z,0.88
2023-02-04T17:06:39.505Z,1.38
2023-02-04T17:09:09.283Z,0.98
2023-02-04T17:11:37.402Z,1.08
2023-02-04T17:14:14.133Z,1.27
2023-02-04T17:16:45.145Z,1.50
2023-02-04T17:19:13.647Z,1.13
2023-02-04T17:21:40.939Z,1.52
2023-02-04T17:24:11.399Z,1.50
2023-02-04T17:26:40.305Z,2.20
2023-02-04T17:29:12.519Z,2.38
2023-02-04T17:31:42.882Z,2.17
2023-02-04T17:36:43.353Z,2.00
2023-02-04T17:39:13.627Z,1.98
2023-02-04T17:41:43.407Z,1.75
2023-02-04T17:44:18.459Z,2.13
2023-02-04T17:46:46.293Z,1.83
2023-02-04T17:49:20.800Z,1.42
2023-02-04T17:51:48.409Z,1.17
2023-02-04T17:54:18.515Z,1.17
2023-02-04T17:56:46.084Z,1.17
2023-02-04T17:59:16.178Z,1.20
2023-02-04T18:01:46.052Z,1.05
2023-02-04T18:04:14.309Z,1.23
2023-02-04T18:06:43.155Z,1.33
2023-02-04T18:09:17.194Z,1.45
2023-02-04T18:11:56.262Z,1.52
2023-02-04T18:14:30.669Z,1.40
2023-02-04T18:17:02.550Z,1.50
2023-02-04T18:19:39.633Z,1.27
2023-02-04T18:22:14.884Z,1.17
2023-02-04T18:24:45.077Z,1.55
2023-02-04T18:27:16.869Z,1.23
2023-02-04T18:29:56.480Z,1.75
2023-02-04T18:32:40.876Z,1.48
2023-02-04T18:35:37.280Z,1.08
2023-02-04T18:38:26.842Z,1.27
2023-02-04T18:41:10.395Z,1.60
2023-02-04T18:44:02.585Z,1.10
2023-02-04T18:46:35.683Z,1.05
2023-02-04T18:49:30.261Z,1.02
2023-02-04T18:52:00.814Z,1.05
2023-02-04T18:54:46.973Z,1.10
2023-02-04T18:57:17.440Z,1.00
2023-02-04T18:59:47.821Z,1.20
2023-02-04T19:02:38.378Z,0.95
2023-02-04T19:05:28.517Z,1.35
2023-02-04T19:08:04.667Z,1.27
2023-02-04T19:10:40.947Z,1.30
2023-02-04T19:13:13.264Z,1.30
2023-02-04T19:15:40.898Z,1.23
2023-02-04T19:18:26.032Z,1.38
2023-02-04T19:20:53.706Z,1.30
2023-02-04T19:23:23.810Z,1.60
2023-02-04T19:25:52.642Z,1.10
2023-02-04T19:28:32.995Z,1.50
2023-02-04T19:31:05.880Z,1.20
2023-02-04T19:33:47.302Z,1.20
2023-02-04T19:36:38.163Z,1.35
2023-02-04T19:39:21.635Z,1.00
2023-02-04T19:41:52.651Z,1.25
2023-02-04T19:44:48.990Z,1.27
2023-02-04T19:47:41.688Z,1.20
2023-02-04T19:50:25.525Z,0.90
2023-02-04T19:52:56.121Z,0.80
2023-02-04T19:55:30.222Z,1.17
2023-02-04T19:58:16.814Z,1.00
2023-02-04T20:00:57.519Z,0.80
2023-02-04T20:03:46.160Z,1.02
2023-02-04T20:06:29.704Z,1.08
2023-02-04T20:09:11.566Z,0.73
2023-02-04T20:11:46.224Z,0.80
2023-02-04T20:14:36.228Z,0.75
2023-02-04T20:17:21.721Z,1.27
2023-02-04T20:19:52.709Z,1.05
2023-02-04T20:22:26.254Z,0.90
2023-02-04T20:24:58.691Z,1.27
2023-02-04T20:27:36.542Z,1.15
2023-02-04T20:30:11.927Z,0.80
2023-02-04T20:32:47.252Z,0.70
2023-02-04T20:35:17.545Z,0.80
2023-02-04T20:37:51.179Z,1.00
2023-02-04T20:40:31.819Z,0.70
2023-02-04T20:43:05.609Z,0.88
2023-02-04T20:46:02.389Z,0.73
2023-02-04T20:48:36.229Z,0.55
2023-02-04T20:51:05.269Z,1.15
2023-02-04T20:53:58.955Z,0.63
2023-02-04T20:56:29.108Z,0.47
2023-02-04T20:59:35.282Z,0.52
2023-02-04T21:02:13.763Z,0.63
2023-02-04T21:04:47.004Z,0.75
2023-02-04T21:07:18.757Z,0.90
2023-02-04T21:09:46.345Z,1.10
2023-02-04T21:12:14.012Z,0.80
2023-02-04T21:14:41.577Z,0.75
2023-02-04T21:17:12.499Z,0.55
2023-02-04T21:19:42.310Z,0.75
2023-02-04T21:22:09.914Z,0.90
2023-02-04T21:24:37.349Z,0.43
2023-02-04T21:27:04.684Z,0.65
2023-02-04T21:29:31.933Z,0.40
2023-02-04T21:31:59.514Z,0.60
2023-02-04T21:34:27.046Z,0.82
2023-02-04T21:36:54.253Z,0.65
2023-02-04T21:39:21.740Z,0.68
2023-02-04T21:42:09.176Z,0.75
2023-02-04T21:44:37.335Z,0.65
2023-02-04T21:47:04.605Z,0.60
2023-02-04T21:49:32.244Z,0.88
2023-02-04T21:51:59.670Z,0.43
2023-02-04T21:54:26.752Z,0.95
2023-02-04T21:56:54.317Z,0.50
2023-02-04T21:59:22.579Z,0.60
2023-02-04T22:01:49.682Z,0.63
2023-02-04T22:04:16.909Z,0.57
2023-02-04T22:06:44.895Z,0.65
2023-02-04T22:09:12.629Z,0.73
2023-02-04T22:11:40.205Z,0.85
2023-02-04T22:14:08.363Z,0.60
2023-02-04T22:16:36.123Z,0.95
2023-02-04T22:19:06.481Z,0.60
2023-02-04T22:21:36.300Z,0.80
2023-02-04T22:24:03.667Z,0.50
2023-02-04T22:26:30.899Z,0.68
2023-02-04T22:28:58.372Z,0.70
2023-02-04T22:31:25.386Z,0.73
2023-02-04T22:33:52.862Z,0.55
2023-02-04T22:36:22.251Z,0.75
2023-02-04T22:38:49.697Z,0.65
2023-02-04T22:41:16.736Z,0.43
2023-02-04T22:43:43.812Z,0.30
2023-02-04T22:46:11.652Z,0.30
2023-02-04T22:48:39.959Z,0.22
2023-02-04T22:51:10.115Z,0.60
2023-02-04T22:53:37.606Z,0.30
2023-02-04T22:56:05.087Z,0.40
2023-02-04T22:58:32.507Z,0.38
2023-02-04T23:01:00.139Z,0.17
2023-02-04T23:03:27.839Z,0.20
2023-02-04T23:05:55.344Z,0.60
2023-02-04T23:08:23.064Z,0.10
2023-02-04T23:10:50.844Z,0.35
2023-02-04T23:13:18.483Z,0.32
2023-02-04T23:15:45.889Z,0.20
2023-02-04T23:18:13.357Z,0.25
2023-02-04T23:20:56.380Z,0.40
2023-02-04T23:23:35.054Z,0.63
2023-02-04T23:26:03.394Z,0.20
2023-02-04T23:28:34.301Z,0.40
2023-02-04T23:31:02.912Z,0.20
2023-02-04T23:33:31.012Z,0.40
2023-02-04T23:35:58.652Z,0.50
2023-02-04T23:38:26.149Z,0.25
2023-02-04T23:40:53.690Z,0.40
2023-02-04T23:43:20.816Z,0.60
2023-02-04T23:45:48.045Z,0.60
2023-02-04T23:48:15.594Z,0.65
2023-02-04T23:50:42.986Z,0.88
2023-02-04T23:53:10.578Z,0.50
2023-02-04T23:55:37.623Z,0.50
2023-02-04T23:58:05.484Z,0.50
